sensor_id;sensor_type;location;lat;lon;timestamp;P1;durP1;ratioP1;P2;durP2;ratioP2
46613;SDS011;32338;50.430;6.806;2023-04-25T00:01:31;7.20;;;6.50;;
46613;SDS011;32338;50.430;6.806;2023-04-25T00:04:01;9.13;;;6.15;;
46613;SDS011;32338;50.430;6.806;2023-04-25T00:06:29;11.27;;;7.82;;
46613;SDS011;32338;50.430;6.806;2023-04-25T00:08:56;10.38;;;6.97;;
46613;SDS011;32338;50.430;6.806;2023-04-25T00:11:23;12.57;;;7.70;;
46613;SDS011;32338;50.430;6.806;2023-04-25T00:13:50;8.13;;;6.85;;
46613;SDS011;32338;50.430;6.806;2023-04-25T00:16:16;9.23;;;7.38;;
46613;SDS011;32338;50.430;6.806;2023-04-25T00:18:43;9.52;;;6.97;;
46613;SDS011;32338;50.430;6.806;2023-04-25T00:21:11;9.00;;;7.22;;
46613;SDS011;32338;50.430;6.806;2023-04-25T00:23:39;9.60;;;7.45;;
46613;SDS011;32338;50.430;6.806;2023-04-25T00:26:05;12.85;;;6.97;;
46613;SDS011;32338;50.430;6.806;2023-04-25T00:28:32;10.48;;;7.25;;
46613;SDS011;32338;50.430;6.806;2023-04-25T00:30:59;10.70;;;6.95;;
46613;SDS011;32338;50.430;6.806;2023-04-25T00:33:25;7.45;;;6.70;;
46613;SDS011;32338;50.430;6.806;2023-04-25T00:35:52;9.55;;;7.53;;
46613;SDS011;32338;50.430;6.806;2023-04-25T00:38:19;11.50;;;7.43;;
46613;SDS011;32338;50.430;6.806;2023-04-25T00:40:47;10.88;;;7.53;;
46613;SDS011;32338;50.430;6.806;2023-04-25T00:43:13;7.93;;;6.43;;
46613;SDS011;32338;50.430;6.806;2023-04-25T00:45:40;12.70;;;7.13;;
46613;SDS011;32338;50.430;6.806;2023-04-25T00:48:07;16.05;;;6.63;;
46613;SDS011;32338;50.430;6.806;2023-04-25T00:50:34;9.27;;;6.95;;
46613;SDS011;32338;50.430;6.806;2023-04-25T00:53:01;9.82;;;6.70;;
46613;SDS011;32338;50.430;6.806;2023-04-25T00:55:28;7.40;;;6.65;;
46613;SDS011;32338;50.430;6.806;2023-04-25T00:57:57;9.82;;;6.82;;
46613;SDS011;32338;50.430;6.806;2023-04-25T01:00:24;9.60;;;6.93;;
46613;SDS011;32338;50.430;6.806;2023-04-25T01:02:51;9.95;;;8.15;;
46613;SDS011;32338;50.430;6.806;2023-04-25T01:05:18;15.65;;;8.05;;
46613;SDS011;32338;50.430;6.806;2023-04-25T01:07:44;16.13;;;8.70;;
46613;SDS011;32338;50.430;6.806;2023-04-25T01:10:12;13.98;;;8.63;;
46613;SDS011;32338;50.430;6.806;2023-04-25T01:12:39;13.13;;;8.20;;
46613;SDS011;32338;50.430;6.806;2023-04-25T01:15:07;14.93;;;9.55;;
46613;SDS011;32338;50.430;6.806;2023-04-25T01:17:34;15.15;;;9.82;;
46613;SDS011;32338;50.430;6.806;2023-04-25T01:20:03;14.80;;;8.88;;
46613;SDS011;32338;50.430;6.806;2023-04-25T01:22:32;14.05;;;9.57;;
46613;SDS011;32338;50.430;6.806;2023-04-25T01:24:58;16.42;;;9.35;;
46613;SDS011;32338;50.430;6.806;2023-04-25T01:27:26;18.50;;;9.18;;
46613;SDS011;32338;50.430;6.806;2023-04-25T01:29:53;12.32;;;8.55;;
46613;SDS011;32338;50.430;6.806;2023-04-25T01:32:21;18.58;;;8.60;;
46613;SDS011;32338;50.430;6.806;2023-04-25T01:34:48;13.07;;;8.73;;
46613;SDS011;32338;50.430;6.806;2023-04-25T01:37:15;17.90;;;8.88;;
46613;SDS011;32338;50.430;6.806;2023-04-25T01:39:44;11.75;;;8.60;;
46613;SDS011;32338;50.430;6.806;2023-04-25T01:42:11;13.10;;;8.35;;
46613;SDS011;32338;50.430;6.806;2023-04-25T01:44:38;12.82;;;7.35;;
46613;SDS011;32338;50.430;6.806;2023-04-25T01:47:05;12.38;;;7.43;;
46613;SDS011;32338;50.430;6.806;2023-04-25T01:49:32;8.77;;;7.88;;
46613;SDS011;32338;50.430;6.806;2023-04-25T01:51:58;13.18;;;7.75;;
46613;SDS011;32338;50.430;6.806;2023-04-25T01:54:25;9.27;;;7.25;;
46613;SDS011;32338;50.430;6.806;2023-04-25T01:56:53;8.13;;;6.38;;
46613;SDS011;32338;50.430;6.806;2023-04-25T01:59:23;10.18;;;6.90;;
46613;SDS011;32338;50.430;6.806;2023-04-25T02:01:50;9.73;;;7.10;;
46613;SDS011;32338;50.430;6.806;2023-04-25T02:04:17;11.52;;;6.97;;
46613;SDS011;32338;50.430;6.806;2023-04-25T02:06:43;9.90;;;7.30;;
46613;SDS011;32338;50.430;6.806;2023-04-25T02:09:10;8.20;;;7.10;;
46613;SDS011;32338;50.430;6.806;2023-04-25T02:11:36;10.40;;;7.13;;
46613;SDS011;32338;50.430;6.806;2023-04-25T02:14:04;10.20;;;7.10;;
46613;SDS011;32338;50.430;6.806;2023-04-25T02:16:31;10.85;;;6.47;;
46613;SDS011;32338;50.430;6.806;2023-04-25T02:18:57;8.15;;;6.72;;
46613;SDS011;32338;50.430;6.806;2023-04-25T02:21:25;12.32;;;6.43;;
46613;SDS011;32338;50.430;6.806;2023-04-25T02:23:51;10.05;;;6.53;;
46613;SDS011;32338;50.430;6.806;2023-04-25T02:26:18;8.93;;;6.20;;
46613;SDS011;32338;50.430;6.806;2023-04-25T02:28:46;7.25;;;5.90;;
46613;SDS011;32338;50.430;6.806;2023-04-25T02:31:14;8.10;;;6.00;;
46613;SDS011;32338;50.430;6.806;2023-04-25T02:33:40;9.05;;;6.30;;
46613;SDS011;32338;50.430;6.806;2023-04-25T02:36:07;14.10;;;6.90;;
46613;SDS011;32338;50.430;6.806;2023-04-25T02:38:33;9.18;;;6.82;;
46613;SDS011;32338;50.430;6.806;2023-04-25T02:41:00;10.85;;;6.95;;
46613;SDS011;32338;50.430;6.806;2023-04-25T02:43:27;8.00;;;6.88;;
46613;SDS011;32338;50.430;6.806;2023-04-25T02:45:53;14.38;;;8.40;;
46613;SDS011;32338;50.430;6.806;2023-04-25T02:48:21;11.45;;;8.43;;
46613;SDS011;32338;50.430;6.806;2023-04-25T02:50:48;14.10;;;8.57;;
46613;SDS011;32338;50.430;6.806;2023-04-25T02:53:15;10.10;;;8.20;;
46613;SDS011;32338;50.430;6.806;2023-04-25T02:55:41;10.52;;;8.20;;
46613;SDS011;32338;50.430;6.806;2023-04-25T02:58:08;14.48;;;7.88;;
46613;SDS011;32338;50.430;6.806;2023-04-25T03:00:35;13.63;;;8.43;;
46613;SDS011;32338;50.430;6.806;2023-04-25T03:03:01;14.60;;;7.30;;
46613;SDS011;32338;50.430;6.806;2023-04-25T03:05:29;11.80;;;7.43;;
46613;SDS011;32338;50.430;6.806;2023-04-25T03:07:56;17.00;;;7.55;;
46613;SDS011;32338;50.430;6.806;2023-04-25T03:10:23;8.32;;;6.72;;
46613;SDS011;32338;50.430;6.806;2023-04-25T03:12:50;8.52;;;6.60;;
46613;SDS011;32338;50.430;6.806;2023-04-25T03:15:17;11.43;;;6.95;;
46613;SDS011;32338;50.430;6.806;2023-04-25T03:17:43;14.40;;;7.45;;
46613;SDS011;32338;50.430;6.806;2023-04-25T03:20:10;22.77;;;8.85;;
46613;SDS011;32338;50.430;6.806;2023-04-25T03:22:39;12.55;;;7.32;;
46613;SDS011;32338;50.430;6.806;2023-04-25T03:25:06;14.57;;;6.75;;
46613;SDS011;32338;50.430;6.806;2023-04-25T03:27:33;15.68;;;6.72;;
46613;SDS011;32338;50.430;6.806;2023-04-25T03:30:00;19.27;;;8.43;;
46613;SDS011;32338;50.430;6.806;2023-04-25T03:32:26;16.73;;;8.52;;
46613;SDS011;32338;50.430;6.806;2023-04-25T03:34:53;15.75;;;7.85;;
46613;SDS011;32338;50.430;6.806;2023-04-25T03:37:20;15.75;;;8.63;;
46613;SDS011;32338;50.430;6.806;2023-04-25T03:39:48;19.35;;;8.43;;
46613;SDS011;32338;50.430;6.806;2023-04-25T03:42:14;20.58;;;7.85;;
46613;SDS011;32338;50.430;6.806;2023-04-25T03:44:41;19.50;;;8.77;;
46613;SDS011;32338;50.430;6.806;2023-04-25T03:47:07;15.40;;;8.65;;
46613;SDS011;32338;50.430;6.806;2023-04-25T03:49:34;21.27;;;9.25;;
46613;SDS011;32338;50.430;6.806;2023-04-25T03:52:00;17.10;;;7.85;;
46613;SDS011;32338;50.430;6.806;2023-04-25T03:54:27;20.15;;;7.75;;
46613;SDS011;32338;50.430;6.806;2023-04-25T03:56:55;20.85;;;8.30;;
46613;SDS011;32338;50.430;6.806;2023-04-25T03:59:22;21.33;;;8.40;;
46613;SDS011;32338;50.430;6.806;2023-04-25T04:01:49;19.63;;;7.93;;
46613;SDS011;32338;50.430;6.806;2023-04-25T04:04:16;21.60;;;7.78;;
46613;SDS011;32338;50.430;6.806;2023-04-25T04:06:43;21.67;;;7.63;;
46613;SDS011;32338;50.430;6.806;2023-04-25T04:09:10;20.90;;;7.45;;
46613;SDS011;32338;50.430;6.806;2023-04-25T04:11:37;22.05;;;7.93;;
46613;SDS011;32338;50.430;6.806;2023-04-25T04:14:06;22.05;;;6.95;;
46613;SDS011;32338;50.430;6.806;2023-04-25T04:16:33;26.13;;;8.07;;
46613;SDS011;32338;50.430;6.806;2023-04-25T04:18:59;20.80;;;7.00;;
46613;SDS011;32338;50.430;6.806;2023-04-25T04:21:26;18.13;;;6.50;;
46613;SDS011;32338;50.430;6.806;2023-04-25T04:23:54;11.85;;;6.55;;
46613;SDS011;32338;50.430;6.806;2023-04-25T04:26:22;18.73;;;6.93;;
46613;SDS011;32338;50.430;6.806;2023-04-25T04:28:49;16.13;;;6.43;;
46613;SDS011;32338;50.430;6.806;2023-04-25T04:31:18;18.33;;;6.72;;
46613;SDS011;32338;50.430;6.806;2023-04-25T04:33:44;17.13;;;6.22;;
46613;SDS011;32338;50.430;6.806;2023-04-25T04:36:11;21.45;;;6.13;;
46613;SDS011;32338;50.430;6.806;2023-04-25T04:38:38;14.73;;;6.88;;
46613;SDS011;32338;50.430;6.806;2023-04-25T04:41:05;16.02;;;5.68;;
46613;SDS011;32338;50.430;6.806;2023-04-25T04:43:31;14.20;;;5.53;;
46613;SDS011;32338;50.430;6.806;2023-04-25T04:45:58;23.08;;;6.68;;
46613;SDS011;32338;50.430;6.806;2023-04-25T04:48:28;16.90;;;5.93;;
46613;SDS011;32338;50.430;6.806;2023-04-25T04:50:57;10.93;;;5.18;;
46613;SDS011;32338;50.430;6.806;2023-04-25T04:53:24;15.35;;;5.38;;
46613;SDS011;32338;50.430;6.806;2023-04-25T04:55:50;13.05;;;4.65;;
46613;SDS011;32338;50.430;6.806;2023-04-25T04:58:17;14.00;;;5.45;;
46613;SDS011;32338;50.430;6.806;2023-04-25T05:00:44;11.65;;;4.55;;
46613;SDS011;32338;50.430;6.806;2023-04-25T05:03:11;14.43;;;5.30;;
46613;SDS011;32338;50.430;6.806;2023-04-25T05:05:39;13.65;;;4.70;;
46613;SDS011;32338;50.430;6.806;2023-04-25T05:08:06;12.90;;;4.43;;
46613;SDS011;32338;50.430;6.806;2023-04-25T05:10:32;12.32;;;4.90;;
46613;SDS011;32338;50.430;6.806;2023-04-25T05:12:59;11.95;;;4.72;;
46613;SDS011;32338;50.430;6.806;2023-04-25T05:15:26;14.65;;;4.22;;
46613;SDS011;32338;50.430;6.806;2023-04-25T05:17:53;16.08;;;4.18;;
46613;SDS011;32338;50.430;6.806;2023-04-25T05:20:20;9.85;;;3.63;;
46613;SDS011;32338;50.430;6.806;2023-04-25T05:22:48;13.38;;;4.18;;
46613;SDS011;32338;50.430;6.806;2023-04-25T05:25:14;7.95;;;3.35;;
46613;SDS011;32338;50.430;6.806;2023-04-25T05:27:41;8.30;;;3.58;;
46613;SDS011;32338;50.430;6.806;2023-04-25T05:30:08;9.90;;;4.50;;
46613;SDS011;32338;50.430;6.806;2023-04-25T05:32:35;11.57;;;3.83;;
46613;SDS011;32338;50.430;6.806;2023-04-25T05:35:01;16.40;;;3.95;;
46613;SDS011;32338;50.430;6.806;2023-04-25T05:37:28;13.73;;;3.65;;
46613;SDS011;32338;50.430;6.806;2023-04-25T05:39:57;13.57;;;3.67;;
46613;SDS011;32338;50.430;6.806;2023-04-25T05:42:24;16.98;;;4.22;;
46613;SDS011;32338;50.430;6.806;2023-04-25T05:44:50;13.60;;;4.13;;
46613;SDS011;32338;50.430;6.806;2023-04-25T05:47:17;17.95;;;3.78;;
46613;SDS011;32338;50.430;6.806;2023-04-25T05:49:43;14.20;;;4.38;;
46613;SDS011;32338;50.430;6.806;2023-04-25T05:52:10;14.60;;;3.53;;
46613;SDS011;32338;50.430;6.806;2023-04-25T05:54:36;11.15;;;3.70;;
46613;SDS011;32338;50.430;6.806;2023-04-25T05:57:04;12.05;;;4.03;;
46613;SDS011;32338;50.430;6.806;2023-04-25T05:59:31;14.07;;;4.47;;
46613;SDS011;32338;50.430;6.806;2023-04-25T06:01:57;16.58;;;4.32;;
46613;SDS011;32338;50.430;6.806;2023-04-25T06:04:25;13.38;;;4.28;;
46613;SDS011;32338;50.430;6.806;2023-04-25T06:06:52;15.77;;;4.25;;
46613;SDS011;32338;50.430;6.806;2023-04-25T06:09:18;16.80;;;4.68;;
46613;SDS011;32338;50.430;6.806;2023-04-25T06:11:45;15.88;;;4.25;;
46613;SDS011;32338;50.430;6.806;2023-04-25T06:14:13;17.52;;;5.07;;
46613;SDS011;32338;50.430;6.806;2023-04-25T06:16:39;11.48;;;3.88;;
46613;SDS011;32338;50.430;6.806;2023-04-25T06:19:06;17.75;;;4.53;;
46613;SDS011;32338;50.430;6.806;2023-04-25T06:21:33;14.88;;;4.40;;
46613;SDS011;32338;50.430;6.806;2023-04-25T06:23:59;17.45;;;5.70;;
46613;SDS011;32338;50.430;6.806;2023-04-25T06:26:26;14.70;;;3.75;;
46613;SDS011;32338;50.430;6.806;2023-04-25T06:28:52;13.32;;;3.92;;
46613;SDS011;32338;50.430;6.806;2023-04-25T06:31:20;16.33;;;3.95;;
46613;SDS011;32338;50.430;6.806;2023-04-25T06:33:47;18.20;;;3.75;;
46613;SDS011;32338;50.430;6.806;2023-04-25T06:36:14;17.27;;;3.85;;
46613;SDS011;32338;50.430;6.806;2023-04-25T06:38:40;16.20;;;3.25;;
46613;SDS011;32338;50.430;6.806;2023-04-25T06:41:07;17.95;;;3.20;;
46613;SDS011;32338;50.430;6.806;2023-04-25T06:43:34;25.45;;;4.13;;
46613;SDS011;32338;50.430;6.806;2023-04-25T06:46:00;13.23;;;2.97;;
46613;SDS011;32338;50.430;6.806;2023-04-25T06:48:28;19.23;;;3.97;;
46613;SDS011;32338;50.430;6.806;2023-04-25T06:50:55;19.38;;;6.45;;
46613;SDS011;32338;50.430;6.806;2023-04-25T06:53:21;15.80;;;3.75;;
46613;SDS011;32338;50.430;6.806;2023-04-25T06:55:48;14.02;;;3.40;;
46613;SDS011;32338;50.430;6.806;2023-04-25T06:58:14;19.02;;;3.28;;
46613;SDS011;32338;50.430;6.806;2023-04-25T07:00:41;23.05;;;4.30;;
46613;SDS011;32338;50.430;6.806;2023-04-25T07:03:08;16.08;;;3.65;;
46613;SDS011;32338;50.430;6.806;2023-04-25T07:05:36;15.43;;;4.13;;
46613;SDS011;32338;50.430;6.806;2023-04-25T07:08:02;20.23;;;3.40;;
46613;SDS011;32338;50.430;6.806;2023-04-25T07:10:29;17.55;;;3.70;;
46613;SDS011;32338;50.430;6.806;2023-04-25T07:12:55;24.10;;;3.65;;
46613;SDS011;32338;50.430;6.806;2023-04-25T07:15:22;12.70;;;3.45;;
46613;SDS011;32338;50.430;6.806;2023-04-25T07:17:48;25.33;;;4.53;;
46613;SDS011;32338;50.430;6.806;2023-04-25T07:20:15;18.25;;;3.35;;
46613;SDS011;32338;50.430;6.806;2023-04-25T07:22:43;22.42;;;3.78;;
46613;SDS011;32338;50.430;6.806;2023-04-25T07:25:10;14.77;;;3.35;;
46613;SDS011;32338;50.430;6.806;2023-04-25T07:27:36;20.30;;;3.05;;
46613;SDS011;32338;50.430;6.806;2023-04-25T07:30:04;16.10;;;3.15;;
46613;SDS011;32338;50.430;6.806;2023-04-25T07:32:32;11.50;;;2.75;;
46613;SDS011;32338;50.430;6.806;2023-04-25T07:34:58;16.77;;;3.60;;
46613;SDS011;32338;50.430;6.806;2023-04-25T07:37:26;16.30;;;2.92;;
46613;SDS011;32338;50.430;6.806;2023-04-25T07:39:54;16.20;;;3.03;;
46613;SDS011;32338;50.430;6.806;2023-04-25T07:42:21;8.82;;;2.83;;
46613;SDS011;32338;50.430;6.806;2023-04-25T07:44:47;12.27;;;2.45;;
46613;SDS011;32338;50.430;6.806;2023-04-25T07:47:14;11.13;;;3.00;;
46613;SDS011;32338;50.430;6.806;2023-04-25T07:49:40;16.17;;;3.00;;
46613;SDS011;32338;50.430;6.806;2023-04-25T07:52:07;9.95;;;2.20;;
46613;SDS011;32338;50.430;6.806;2023-04-25T07:54:34;8.23;;;2.25;;
46613;SDS011;32338;50.430;6.806;2023-04-25T07:57:02;12.77;;;2.40;;
46613;SDS011;32338;50.430;6.806;2023-04-25T07:59:28;12.48;;;2.40;;
46613;SDS011;32338;50.430;6.806;2023-04-25T08:01:55;20.83;;;3.00;;
46613;SDS011;32338;50.430;6.806;2023-04-25T08:04:23;14.75;;;2.20;;
46613;SDS011;32338;50.430;6.806;2023-04-25T08:06:50;15.25;;;2.90;;
46613;SDS011;32338;50.430;6.806;2023-04-25T08:09:17;12.32;;;2.53;;
46613;SDS011;32338;50.430;6.806;2023-04-25T08:11:44;16.50;;;2.17;;
46613;SDS011;32338;50.430;6.806;2023-04-25T08:14:12;9.45;;;2.42;;
46613;SDS011;32338;50.430;6.806;2023-04-25T08:16:39;14.80;;;2.72;;
46613;SDS011;32338;50.430;6.806;2023-04-25T08:19:05;8.18;;;2.25;;
46613;SDS011;32338;50.430;6.806;2023-04-25T08:21:32;9.55;;;2.15;;
46613;SDS011;32338;50.430;6.806;2023-04-25T08:23:58;12.80;;;2.35;;
46613;SDS011;32338;50.430;6.806;2023-04-25T08:26:25;6.38;;;2.63;;
46613;SDS011;32338;50.430;6.806;2023-04-25T08:28:52;13.02;;;3.20;;
46613;SDS011;32338;50.430;6.806;2023-04-25T08:31:20;11.95;;;2.17;;
46613;SDS011;32338;50.430;6.806;2023-04-25T08:33:46;11.43;;;2.72;;
46613;SDS011;32338;50.430;6.806;2023-04-25T08:36:14;13.38;;;3.30;;
46613;SDS011;32338;50.430;6.806;2023-04-25T08:38:41;15.13;;;3.28;;
46613;SDS011;32338;50.430;6.806;2023-04-25T08:41:07;14.02;;;2.55;;
46613;SDS011;32338;50.430;6.806;2023-04-25T08:43:37;7.78;;;2.65;;
46613;SDS011;32338;50.430;6.806;2023-04-25T08:46:03;8.90;;;2.00;;
46613;SDS011;32338;50.430;6.806;2023-04-25T08:48:33;5.03;;;1.90;;
46613;SDS011;32338;50.430;6.806;2023-04-25T08:51:01;11.15;;;1.88;;
46613;SDS011;32338;50.430;6.806;2023-04-25T08:53:30;15.05;;;2.90;;
46613;SDS011;32338;50.430;6.806;2023-04-25T08:55:59;11.95;;;2.17;;
46613;SDS011;32338;50.430;6.806;2023-04-25T08:58:27;15.02;;;2.40;;
46613;SDS011;32338;50.430;6.806;2023-04-25T09:00:54;13.10;;;2.10;;
46613;SDS011;32338;50.430;6.806;2023-04-25T09:03:21;11.45;;;1.83;;
46613;SDS011;32338;50.430;6.806;2023-04-25T09:05:49;9.48;;;1.70;;
46613;SDS011;32338;50.430;6.806;2023-04-25T09:08:17;8.30;;;1.45;;
46613;SDS011;32338;50.430;6.806;2023-04-25T09:10:44;7.53;;;1.58;;
46613;SDS011;32338;50.430;6.806;2023-04-25T09:13:11;12.88;;;1.63;;
46613;SDS011;32338;50.430;6.806;2023-04-25T09:15:46;15.98;;;1.52;;
46613;SDS011;32338;50.430;6.806;2023-04-25T09:18:21;10.68;;;1.65;;
46613;SDS011;32338;50.430;6.806;2023-04-25T09:20:50;10.52;;;1.65;;
46613;SDS011;32338;50.430;6.806;2023-04-25T09:23:18;9.70;;;1.80;;
46613;SDS011;32338;50.430;6.806;2023-04-25T09:25:47;6.80;;;2.00;;
46613;SDS011;32338;50.430;6.806;2023-04-25T09:28:14;9.50;;;1.38;;
46613;SDS011;32338;50.430;6.806;2023-04-25T09:30:41;7.80;;;1.58;;
46613;SDS011;32338;50.430;6.806;2023-04-25T09:33:09;5.22;;;1.27;;
46613;SDS011;32338;50.430;6.806;2023-04-25T09:35:37;9.63;;;1.70;;
46613;SDS011;32338;50.430;6.806;2023-04-25T09:38:10;9.02;;;1.50;;
46613;SDS011;32338;50.430;6.806;2023-04-25T09:40:41;5.78;;;1.70;;
46613;SDS011;32338;50.430;6.806;2023-04-25T09:43:12;3.97;;;1.23;;
46613;SDS011;32338;50.430;6.806;2023-04-25T09:45:45;5.28;;;1.27;;
46613;SDS011;32338;50.430;6.806;2023-04-25T09:48:12;7.55;;;1.20;;
46613;SDS011;32338;50.430;6.806;2023-04-25T09:50:43;9.82;;;1.42;;
46613;SDS011;32338;50.430;6.806;2023-04-25T09:53:12;6.25;;;1.38;;
46613;SDS011;32338;50.430;6.806;2023-04-25T09:55:38;6.47;;;1.35;;
46613;SDS011;32338;50.430;6.806;2023-04-25T09:58:06;5.78;;;1.27;;
46613;SDS011;32338;50.430;6.806;2023-04-25T10:00:35;4.20;;;0.98;;
46613;SDS011;32338;50.430;6.806;2023-04-25T10:03:03;3.92;;;1.35;;
46613;SDS011;32338;50.430;6.806;2023-04-25T10:05:32;6.63;;;0.90;;
46613;SDS011;32338;50.430;6.806;2023-04-25T10:08:02;3.20;;;0.80;;
46613;SDS011;32338;50.430;6.806;2023-04-25T10:10:31;4.15;;;1.02;;
46613;SDS011;32338;50.430;6.806;2023-04-25T10:13:02;4.85;;;0.90;;
46613;SDS011;32338;50.430;6.806;2023-04-25T10:15:30;5.68;;;1.00;;
46613;SDS011;32338;50.430;6.806;2023-04-25T10:17:57;5.65;;;1.48;;
46613;SDS011;32338;50.430;6.806;2023-04-25T10:20:24;4.78;;;1.60;;
46613;SDS011;32338;50.430;6.806;2023-04-25T10:22:51;7.68;;;1.80;;
46613;SDS011;32338;50.430;6.806;2023-04-25T10:25:22;5.43;;;1.30;;
46613;SDS011;32338;50.430;6.806;2023-04-25T10:27:51;6.22;;;1.45;;
46613;SDS011;32338;50.430;6.806;2023-04-25T10:30:18;6.20;;;1.13;;
46613;SDS011;32338;50.430;6.806;2023-04-25T10:32:44;3.42;;;0.98;;
46613;SDS011;32338;50.430;6.806;2023-04-25T10:35:15;8.02;;;1.20;;
46613;SDS011;32338;50.430;6.806;2023-04-25T10:37:56;8.32;;;1.50;;
46613;SDS011;32338;50.430;6.806;2023-04-25T10:40:24;9.38;;;1.58;;
46613;SDS011;32338;50.430;6.806;2023-04-25T10:42:53;7.85;;;2.03;;
46613;SDS011;32338;50.430;6.806;2023-04-25T10:45:21;5.00;;;1.25;;
46613;SDS011;32338;50.430;6.806;2023-04-25T10:47:48;8.18;;;1.48;;
46613;SDS011;32338;50.430;6.806;2023-04-25T10:50:15;9.38;;;1.55;;
46613;SDS011;32338;50.430;6.806;2023-04-25T10:52:42;8.20;;;1.35;;
46613;SDS011;32338;50.430;6.806;2023-04-25T10:55:09;6.75;;;1.55;;
46613;SDS011;32338;50.430;6.806;2023-04-25T10:57:36;5.10;;;1.25;;
46613;SDS011;32338;50.430;6.806;2023-04-25T11:02:52;6.53;;;1.63;;
46613;SDS011;32338;50.430;6.806;2023-04-25T11:05:25;12.70;;;2.00;;
46613;SDS011;32338;50.430;6.806;2023-04-25T11:07:58;6.88;;;1.67;;
46613;SDS011;32338;50.430;6.806;2023-04-25T11:10:25;13.15;;;1.92;;
46613;SDS011;32338;50.430;6.806;2023-04-25T11:12:52;10.15;;;1.83;;
46613;SDS011;32338;50.430;6.806;2023-04-25T11:15:19;6.90;;;1.65;;
46613;SDS011;32338;50.430;6.806;2023-04-25T11:17:47;8.95;;;1.23;;
46613;SDS011;32338;50.430;6.806;2023-04-25T11:20:15;7.38;;;1.60;;
46613;SDS011;32338;50.430;6.806;2023-04-25T11:22:42;7.10;;;2.15;;
46613;SDS011;32338;50.430;6.806;2023-04-25T11:25:11;6.57;;;1.42;;
46613;SDS011;32338;50.430;6.806;2023-04-25T11:27:48;10.88;;;1.60;;
46613;SDS011;32338;50.430;6.806;2023-04-25T11:30:15;6.75;;;1.58;;
46613;SDS011;32338;50.430;6.806;2023-04-25T11:32:42;5.53;;;1.60;;
46613;SDS011;32338;50.430;6.806;2023-04-25T11:35:10;9.57;;;1.35;;
46613;SDS011;32338;50.430;6.806;2023-04-25T11:37:38;7.95;;;1.52;;
46613;SDS011;32338;50.430;6.806;2023-04-25T11:40:05;18.27;;;1.55;;
46613;SDS011;32338;50.430;6.806;2023-04-25T11:42:34;12.20;;;2.30;;
46613;SDS011;32338;50.430;6.806;2023-04-25T11:45:00;9.65;;;1.52;;
46613;SDS011;32338;50.430;6.806;2023-04-25T11:47:28;6.68;;;1.45;;
46613;SDS011;32338;50.430;6.806;2023-04-25T11:49:57;9.77;;;1.45;;
46613;SDS011;32338;50.430;6.806;2023-04-25T11:52:25;7.63;;;1.42;;
46613;SDS011;32338;50.430;6.806;2023-04-25T11:55:03;7.45;;;1.40;;
46613;SDS011;32338;50.430;6.806;2023-04-25T11:57:32;5.90;;;1.20;;
46613;SDS011;32338;50.430;6.806;2023-04-25T12:00:04;4.80;;;1.35;;
46613;SDS011;32338;50.430;6.806;2023-04-25T12:02:34;4.93;;;1.70;;
46613;SDS011;32338;50.430;6.806;2023-04-25T12:05:01;4.43;;;1.30;;
46613;SDS011;32338;50.430;6.806;2023-04-25T12:07:30;7.85;;;1.52;;
46613;SDS011;32338;50.430;6.806;2023-04-25T12:09:56;5.07;;;1.58;;
46613;SDS011;32338;50.430;6.806;2023-04-25T12:12:26;10.35;;;1.67;;
46613;SDS011;32338;50.430;6.806;2023-04-25T12:14:53;9.27;;;1.55;;
46613;SDS011;32338;50.430;6.806;2023-04-25T12:17:20;6.13;;;1.40;;
46613;SDS011;32338;50.430;6.806;2023-04-25T12:19:48;8.93;;;1.50;;
46613;SDS011;32338;50.430;6.806;2023-04-25T12:22:19;6.53;;;1.50;;
46613;SDS011;32338;50.430;6.806;2023-04-25T12:24:48;8.25;;;1.40;;
46613;SDS011;32338;50.430;6.806;2023-04-25T12:27:16;6.72;;;1.77;;
46613;SDS011;32338;50.430;6.806;2023-04-25T12:29:49;5.55;;;1.50;;
46613;SDS011;32338;50.430;6.806;2023-04-25T12:32:17;5.85;;;1.67;;
46613;SDS011;32338;50.430;6.806;2023-04-25T12:34:44;3.88;;;1.60;;
46613;SDS011;32338;50.430;6.806;2023-04-25T12:37:11;5.22;;;1.58;;
46613;SDS011;32338;50.430;6.806;2023-04-25T12:39:37;7.05;;;1.88;;
46613;SDS011;32338;50.430;6.806;2023-04-25T12:42:06;4.95;;;1.48;;
46613;SDS011;32338;50.430;6.806;2023-04-25T12:44:36;6.13;;;1.60;;
46613;SDS011;32338;50.430;6.806;2023-04-25T12:47:03;7.50;;;2.00;;
46613;SDS011;32338;50.430;6.806;2023-04-25T12:49:30;10.23;;;1.83;;
46613;SDS011;32338;50.430;6.806;2023-04-25T12:51:57;5.93;;;1.65;;
46613;SDS011;32338;50.430;6.806;2023-04-25T12:54:24;10.25;;;1.60;;
46613;SDS011;32338;50.430;6.806;2023-04-25T12:56:50;8.68;;;1.48;;
46613;SDS011;32338;50.430;6.806;2023-04-25T12:59:19;9.48;;;1.90;;
46613;SDS011;32338;50.430;6.806;2023-04-25T13:01:46;11.05;;;1.77;;
46613;SDS011;32338;50.430;6.806;2023-04-25T13:04:12;3.33;;;1.50;;
46613;SDS011;32338;50.430;6.806;2023-04-25T13:06:39;10.75;;;1.70;;
46613;SDS011;32338;50.430;6.806;2023-04-25T13:09:05;7.88;;;1.75;;
46613;SDS011;32338;50.430;6.806;2023-04-25T13:11:33;10.85;;;2.13;;
46613;SDS011;32338;50.430;6.806;2023-04-25T13:14:00;10.60;;;2.08;;
46613;SDS011;32338;50.430;6.806;2023-04-25T13:16:28;6.60;;;1.70;;
46613;SDS011;32338;50.430;6.806;2023-04-25T13:18:55;6.15;;;1.85;;
46613;SDS011;32338;50.430;6.806;2023-04-25T13:21:22;13.23;;;1.88;;
46613;SDS011;32338;50.430;6.806;2023-04-25T13:23:48;6.82;;;2.40;;
46613;SDS011;32338;50.430;6.806;2023-04-25T13:26:15;11.70;;;2.22;;
46613;SDS011;32338;50.430;6.806;2023-04-25T13:28:42;14.35;;;1.55;;
46613;SDS011;32338;50.430;6.806;2023-04-25T13:31:09;8.13;;;1.70;;
46613;SDS011;32338;50.430;6.806;2023-04-25T13:33:37;12.88;;;2.15;;
46613;SDS011;32338;50.430;6.806;2023-04-25T13:36:03;7.05;;;1.88;;
46613;SDS011;32338;50.430;6.806;2023-04-25T13:38:30;5.55;;;1.83;;
46613;SDS011;32338;50.430;6.806;2023-04-25T13:40:57;10.48;;;2.08;;
46613;SDS011;32338;50.430;6.806;2023-04-25T13:43:23;10.23;;;1.90;;
46613;SDS011;32338;50.430;6.806;2023-04-25T13:45:50;11.60;;;1.95;;
46613;SDS011;32338;50.430;6.806;2023-04-25T13:48:17;12.07;;;2.35;;
46613;SDS011;32338;50.430;6.806;2023-04-25T13:50:45;5.80;;;1.70;;
46613;SDS011;32338;50.430;6.806;2023-04-25T13:53:12;9.75;;;2.03;;
46613;SDS011;32338;50.430;6.806;2023-04-25T13:55:39;7.03;;;2.20;;
46613;SDS011;32338;50.430;6.806;2023-04-25T13:58:05;11.43;;;2.20;;
46613;SDS011;32338;50.430;6.806;2023-04-25T14:00:35;8.15;;;2.03;;
46613;SDS011;32338;50.430;6.806;2023-04-25T14:03:03;8.02;;;1.77;;
46613;SDS011;32338;50.430;6.806;2023-04-25T14:05:32;8.45;;;1.83;;
46613;SDS011;32338;50.430;6.806;2023-04-25T14:08:04;4.15;;;1.35;;
46613;SDS011;32338;50.430;6.806;2023-04-25T14:10:32;5.00;;;1.55;;
46613;SDS011;32338;50.430;6.806;2023-04-25T14:12:58;8.27;;;1.48;;
46613;SDS011;32338;50.430;6.806;2023-04-25T14:15:25;5.88;;;1.50;;
46613;SDS011;32338;50.430;6.806;2023-04-25T14:17:52;3.85;;;1.73;;
46613;SDS011;32338;50.430;6.806;2023-04-25T14:20:18;9.50;;;1.80;;
46613;SDS011;32338;50.430;6.806;2023-04-25T14:22:46;5.93;;;1.38;;
46613;SDS011;32338;50.430;6.806;2023-04-25T14:25:14;11.18;;;1.80;;
46613;SDS011;32338;50.430;6.806;2023-04-25T14:27:41;4.10;;;1.90;;
46613;SDS011;32338;50.430;6.806;2023-04-25T14:30:09;7.75;;;1.90;;
46613;SDS011;32338;50.430;6.806;2023-04-25T14:32:36;9.23;;;1.77;;
46613;SDS011;32338;50.430;6.806;2023-04-25T14:35:04;9.43;;;1.67;;
46613;SDS011;32338;50.430;6.806;2023-04-25T14:37:32;5.78;;;1.75;;
46613;SDS011;32338;50.430;6.806;2023-04-25T14:39:58;6.03;;;1.92;;
46613;SDS011;32338;50.430;6.806;2023-04-25T14:42:26;7.70;;;2.10;;
46613;SDS011;32338;50.430;6.806;2023-04-25T14:44:53;8.73;;;2.05;;